sensor_id;sensor_type;location;lat;lon;timestamp;temperature;humidity
43858;DHT22;29507;51.284;5.758;2023-08-17T00:00:10;19.20;99.90
43858;DHT22;29507;51.284;5.758;2023-08-17T00:02:42;19.20;99.90
43858;DHT22;29507;51.284;5.758;2023-08-17T00:05:08;19.10;99.90
43858;DHT22;29507;51.284;5.758;2023-08-17T00:07:35;19.10;99.90
43858;DHT22;29507;51.284;5.758;2023-08-17T00:10:02;19.20;99.90
43858;DHT22;29507;51.284;5.758;2023-08-17T00:12:28;19.10;99.90
43858;DHT22;29507;51.284;5.758;2023-08-17T00:14:54;19.10;99.90
43858;DHT22;29507;51.284;5.758;2023-08-17T00:17:20;19.10;99.90
43858;DHT22;29507;51.284;5.758;2023-08-17T00:19:46;19.00;99.90
43858;DHT22;29507;51.284;5.758;2023-08-17T00:22:12;19.00;99.90
43858;DHT22;29507;51.284;5.758;2023-08-17T00:24:37;19.00;99.90
43858;DHT22;29507;51.284;5.758;2023-08-17T00:27:03;19.00;99.90
43858;DHT22;29507;51.284;5.758;2023-08-17T00:29:29;19.00;99.90
43858;DHT22;29507;51.284;5.758;2023-08-17T00:31:55;19.00;99.90
43858;DHT22;29507;51.284;5.758;2023-08-17T00:34:21;19.00;99.90
43858;DHT22;29507;51.284;5.758;2023-08-17T00:36:46;19.00;99.90
43858;DHT22;29507;51.284;5.758;2023-08-17T00:39:12;19.00;99.90
43858;DHT22;29507;51.284;5.758;2023-08-17T00:41:38;19.00;99.90
43858;DHT22;29507;51.284;5.758;2023-08-17T00:44:03;19.00;99.90
43858;DHT22;29507;51.284;5.758;2023-08-17T00:46:29;19.00;99.90
43858;DHT22;29507;51.284;5.758;2023-08-17T00:48:56;18.90;99.90
43858;DHT22;29507;51.284;5.758;2023-08-17T00:51:24;18.90;99.90
43858;DHT22;29507;51.284;5.758;2023-08-17T00:53:58;18.80;99.90
43858;DHT22;29507;51.284;5.758;2023-08-17T00:56:24;18.70;99.90
43858;DHT22;29507;51.284;5.758;2023-08-17T00:58:50;18.60;99.90
43858;DHT22;29507;51.284;5.758;2023-08-17T01:01:16;18.50;99.90
43858;DHT22;29507;51.284;5.758;2023-08-17T01:03:42;18.50;99.90
43858;DHT22;29507;51.284;5.758;2023-08-17T01:06:09;18.50;99.90
43858;DHT22;29507;51.284;5.758;2023-08-17T01:08:35;18.50;99.90
43858;DHT22;29507;51.284;5.758;2023-08-17T01:13:47;18.50;99.90
43858;DHT22;29507;51.284;5.758;2023-08-17T01:16:21;18.40;99.90
43858;DHT22;29507;51.284;5.758;2023-08-17T01:18:50;18.30;99.90
43858;DHT22;29507;51.284;5.758;2023-08-17T01:21:17;18.30;99.90
43858;DHT22;29507;51.284;5.758;2023-08-17T01:23:46;18.30;99.90
43858;DHT22;29507;51.284;5.758;2023-08-17T01:26:11;18.30;99.90
43858;DHT22;29507;51.284;5.758;2023-08-17T01:28:46;18.30;99.90
43858;DHT22;29507;51.284;5.758;2023-08-17T01:31:21;18.30;99.90
43858;DHT22;29507;51.284;5.758;2023-08-17T01:33:58;18.20;99.90
43858;DHT22;29507;51.284;5.758;2023-08-17T01:36:37;18.20;99.90
43858;DHT22;29507;51.284;5.758;2023-08-17T01:39:05;18.30;99.90
43858;DHT22;29507;51.284;5.758;2023-08-17T01:41:32;18.30;99.90
43858;DHT22;29507;51.284;5.758;2023-08-17T01:43:58;18.30;99.90
43858;DHT22;29507;51.284;5.758;2023-08-17T01:46:29;18.30;99.90
43858;DHT22;29507;51.284;5.758;2023-08-17T01:48:55;18.20;99.90
43858;DHT22;29507;51.284;5.758;2023-08-17T01:51:21;18.20;99.90
43858;DHT22;29507;51.284;5.758;2023-08-17T01:53:47;18.20;99.90
43858;DHT22;29507;51.284;5.758;2023-08-17T01:56:13;18.10;99.90
43858;DHT22;29507;51.284;5.758;2023-08-17T01:58:39;18.10;99.90
43858;DHT22;29507;51.284;5.758;2023-08-17T02:01:04;18.10;99.90
43858;DHT22;29507;51.284;5.758;2023-08-17T02:03:30;18.10;99.90
43858;DHT22;29507;51.284;5.758;2023-08-17T02:05:56;18.10;99.90
43858;DHT22;29507;51.284;5.758;2023-08-17T02:08:22;18.10;99.90
43858;DHT22;29507;51.284;5.758;2023-08-17T02:10:48;18.10;99.90
43858;DHT22;29507;51.284;5.758;2023-08-17T02:13:14;18.10;99.90
43858;DHT22;29507;51.284;5.758;2023-08-17T02:15:41;18.10;99.90
43858;DHT22;29507;51.284;5.758;2023-08-17T02:18:07;18.10;99.90
43858;DHT22;29507;51.284;5.758;2023-08-17T02:20:33;18.00;99.90
43858;DHT22;29507;51.284;5.758;2023-08-17T02:22:59;18.00;99.90
43858;DHT22;29507;51.284;5.758;2023-08-17T02:25:25;18.00;99.90
43858;DHT22;29507;51.284;5.758;2023-08-17T02:27:51;18.10;99.90
43858;DHT22;29507;51.284;5.758;2023-08-17T02:30:17;18.10;99.90
43858;DHT22;29507;51.284;5.758;2023-08-17T02:32:43;18.10;99.90
43858;DHT22;29507;51.284;5.758;2023-08-17T02:35:09;18.10;99.90
43858;DHT22;29507;51.284;5.758;2023-08-17T02:37:35;18.10;99.90
43858;DHT22;29507;51.284;5.758;2023-08-17T02:40:00;18.10;99.90
43858;DHT22;29507;51.284;5.758;2023-08-17T02:42:26;18.10;99.90
43858;DHT22;29507;51.284;5.758;2023-08-17T02:44:52;18.10;99.90
43858;DHT22;29507;51.284;5.758;2023-08-17T02:47:17;18.10;99.90
43858;DHT22;29507;51.284;5.758;2023-08-17T02:49:43;18.00;99.90
43858;DHT22;29507;51.284;5.758;2023-08-17T02:52:08;17.90;99.90
43858;DHT22;29507;51.284;5.758;2023-08-17T02:54:34;17.90;99.90
43858;DHT22;29507;51.284;5.758;2023-08-17T02:57:00;17.90;99.90
43858;DHT22;29507;51.284;5.758;2023-08-17T02:59:25;17.90;99.90
43858;DHT22;29507;51.284;5.758;2023-08-17T03:01:51;17.90;99.90
43858;DHT22;29507;51.284;5.758;2023-08-17T03:04:18;17.90;99.90
43858;DHT22;29507;51.284;5.758;2023-08-17T03:06:44;17.90;99.90
43858;DHT22;29507;51.284;5.758;2023-08-17T03:09:09;17.90;99.90
43858;DHT22;29507;51.284;5.758;2023-08-17T03:11:36;17.90;99.90
43858;DHT22;29507;51.284;5.758;2023-08-17T03:14:02;17.80;99.90
43858;DHT22;29507;51.284;5.758;2023-08-17T03:16:28;17.70;99.90
43858;DHT22;29507;51.284;5.758;2023-08-17T03:18:56;17.70;99.90
43858;DHT22;29507;51.284;5.758;2023-08-17T03:21:21;17.70;99.90
43858;DHT22;29507;51.284;5.758;2023-08-17T03:23:48;17.60;99.90
43858;DHT22;29507;51.284;5.758;2023-08-17T03:26:14;17.60;99.90
43858;DHT22;29507;51.284;5.758;2023-08-17T03:28:40;17.50;99.90
43858;DHT22;29507;51.284;5.758;2023-08-17T03:31:07;17.60;99.90
43858;DHT22;29507;51.284;5.758;2023-08-17T03:33:35;17.50;99.90
43858;DHT22;29507;51.284;5.758;2023-08-17T03:36:01;17.40;99.90
43858;DHT22;29507;51.284;5.758;2023-08-17T03:38:27;17.40;99.90
43858;DHT22;29507;51.284;5.758;2023-08-17T03:40:52;17.30;99.90
43858;DHT22;29507;51.284;5.758;2023-08-17T03:43:18;17.30;99.90
43858;DHT22;29507;51.284;5.758;2023-08-17T03:45:43;17.30;99.90
43858;DHT22;29507;51.284;5.758;2023-08-17T03:48:09;17.30;99.90
43858;DHT22;29507;51.284;5.758;2023-08-17T03:50:35;17.30;99.90
43858;DHT22;29507;51.284;5.758;2023-08-17T03:53:01;17.20;99.90
43858;DHT22;29507;51.284;5.758;2023-08-17T03:55:27;17.10;99.90
43858;DHT22;29507;51.284;5.758;2023-08-17T03:57:52;17.10;99.90
43858;DHT22;29507;51.284;5.758;2023-08-17T04:00:18;17.10;99.90
43858;DHT22;29507;51.284;5.758;2023-08-17T04:02:44;17.10;99.90
43858;DHT22;29507;51.284;5.758;2023-08-17T04:05:09;17.00;99.90
43858;DHT22;29507;51.284;5.758;2023-08-17T04:07:36;17.10;99.90
43858;DHT22;29507;51.284;5.758;2023-08-17T04:10:03;17.00;99.90
43858;DHT22;29507;51.284;5.758;2023-08-17T04:12:29;17.00;99.90
43858;DHT22;29507;51.284;5.758;2023-08-17T04:14:54;17.00;99.90
43858;DHT22;29507;51.284;5.758;2023-08-17T04:17:21;16.90;99.90
43858;DHT22;29507;51.284;5.758;2023-08-17T04:19:47;17.00;99.90
43858;DHT22;29507;51.284;5.758;2023-08-17T04:22:13;16.90;99.90
43858;DHT22;29507;51.284;5.758;2023-08-17T04:24:38;16.90;99.90
43858;DHT22;29507;51.284;5.758;2023-08-17T04:27:05;16.90;99.90
43858;DHT22;29507;51.284;5.758;2023-08-17T04:29:31;16.90;99.90
43858;DHT22;29507;51.284;5.758;2023-08-17T04:31:57;16.90;99.90
43858;DHT22;29507;51.284;5.758;2023-08-17T04:34:24;16.90;99.90
43858;DHT22;29507;51.284;5.758;2023-08-17T04:36:49;16.80;99.90
43858;DHT22;29507;51.284;5.758;2023-08-17T04:39:15;16.80;99.90
43858;DHT22;29507;51.284;5.758;2023-08-17T04:41:41;16.80;99.90
43858;DHT22;29507;51.284;5.758;2023-08-17T04:44:06;16.80;99.90
43858;DHT22;29507;51.284;5.758;2023-08-17T04:46:32;16.90;99.90
43858;DHT22;29507;51.284;5.758;2023-08-17T04:48:58;16.90;99.90
43858;DHT22;29507;51.284;5.758;2023-08-17T04:51:23;16.90;99.90
43858;DHT22;29507;51.284;5.758;2023-08-17T04:53:49;16.90;99.90
43858;DHT22;29507;51.284;5.758;2023-08-17T04:56:15;16.90;99.90
43858;DHT22;29507;51.284;5.758;2023-08-17T04:58:40;16.90;99.90
43858;DHT22;29507;51.284;5.758;2023-08-17T05:01:06;17.00;99.90
43858;DHT22;29507;51.284;5.758;2023-08-17T05:03:31;17.00;99.90
43858;DHT22;29507;51.284;5.758;2023-08-17T05:05:57;17.00;99.90
43858;DHT22;29507;51.284;5.758;2023-08-17T05:08:23;17.00;99.90
43858;DHT22;29507;51.284;5.758;2023-08-17T05:10:49;17.00;99.90
43858;DHT22;29507;51.284;5.758;2023-08-17T05:13:15;16.90;99.90
43858;DHT22;29507;51.284;5.758;2023-08-17T05:15:40;17.00;99.90
43858;DHT22;29507;51.284;5.758;2023-08-17T05:18:07;17.10;99.90
43858;DHT22;29507;51.284;5.758;2023-08-17T05:20:33;17.20;99.90
43858;DHT22;29507;51.284;5.758;2023-08-17T05:22:59;17.20;99.90
43858;DHT22;29507;51.284;5.758;2023-08-17T05:25:24;17.20;99.90
43858;DHT22;29507;51.284;5.758;2023-08-17T05:27:51;17.20;99.90
43858;DHT22;29507;51.284;5.758;2023-08-17T05:30:17;17.30;99.90
43858;DHT22;29507;51.284;5.758;2023-08-17T05:32:43;17.40;99.90
43858;DHT22;29507;51.284;5.758;2023-08-17T05:35:09;17.40;99.90
43858;DHT22;29507;51.284;5.758;2023-08-17T05:37:34;17.50;99.90
43858;DHT22;29507;51.284;5.758;2023-08-17T05:40:00;17.60;99.90
43858;DHT22;29507;51.284;5.758;2023-08-17T05:42:26;17.60;99.90
43858;DHT22;29507;51.284;5.758;2023-08-17T05:44:51;17.60;99.90
43858;DHT22;29507;51.284;5.758;2023-08-17T05:47:17;17.80;99.90
43858;DHT22;29507;51.284;5.758;2023-08-17T05:49:44;17.80;99.90
43858;DHT22;29507;51.284;5.758;2023-08-17T05:52:10;17.90;99.90
43858;DHT22;29507;51.284;5.758;2023-08-17T05:54:36;17.80;99.90
43858;DHT22;29507;51.284;5.758;2023-08-17T05:57:02;17.80;99.90
43858;DHT22;29507;51.284;5.758;2023-08-17T05:59:27;17.80;99.90
43858;DHT22;29507;51.284;5.758;2023-08-17T06:01:53;17.70;99.90
43858;DHT22;29507;51.284;5.758;2023-08-17T06:04:19;17.70;99.90
43858;DHT22;29507;51.284;5.758;2023-08-17T06:06:46;17.80;99.90
43858;DHT22;29507;51.284;5.758;2023-08-17T06:09:12;17.80;99.90
43858;DHT22;29507;51.284;5.758;2023-08-17T06:11:37;17.90;99.90
43858;DHT22;29507;51.284;5.758;2023-08-17T06:14:04;17.90;99.90
43858;DHT22;29507;51.284;5.758;2023-08-17T06:16:29;18.00;99.90
43858;DHT22;29507;51.284;5.758;2023-08-17T06:18:55;18.00;99.90
43858;DHT22;29507;51.284;5.758;2023-08-17T06:21:21;18.00;99.90
43858;DHT22;29507;51.284;5.758;2023-08-17T06:23:47;18.00;99.90
43858;DHT22;29507;51.284;5.758;2023-08-17T06:26:12;18.00;99.90
43858;DHT22;29507;51.284;5.758;2023-08-17T06:28:38;18.00;99.90
43858;DHT22;29507;51.284;5.758;2023-08-17T06:31:04;18.00;99.90
43858;DHT22;29507;51.284;5.758;2023-08-17T06:33:30;18.10;99.90
43858;DHT22;29507;51.284;5.758;2023-08-17T06:35:55;18.20;99.90
43858;DHT22;29507;51.284;5.758;2023-08-17T06:38:21;18.30;99.90
43858;DHT22;29507;51.284;5.758;2023-08-17T06:40:47;18.30;99.90
43858;DHT22;29507;51.284;5.758;2023-08-17T06:43:13;18.30;99.90
43858;DHT22;29507;51.284;5.758;2023-08-17T06:45:39;18.30;99.90
43858;DHT22;29507;51.284;5.758;2023-08-17T06:48:05;18.30;99.90
43858;DHT22;29507;51.284;5.758;2023-08-17T06:50:30;18.30;99.90
43858;DHT22;29507;51.284;5.758;2023-08-17T06:52:56;18.40;99.90
43858;DHT22;29507;51.284;5.758;2023-08-17T06:55:22;18.40;99.90
43858;DHT22;29507;51.284;5.758;2023-08-17T06:57:47;18.40;99.90
43858;DHT22;29507;51.284;5.758;2023-08-17T07:00:17;18.50;99.90
43858;DHT22;29507;51.284;5.758;2023-08-17T07:02:46;18.50;99.90
43858;DHT22;29507;51.284;5.758;2023-08-17T07:05:13;18.60;99.90
43858;DHT22;29507;51.284;5.758;2023-08-17T07:07:39;18.70;99.90
43858;DHT22;29507;51.284;5.758;2023-08-17T07:10:05;18.90;99.90
43858;DHT22;29507;51.284;5.758;2023-08-17T07:12:32;19.00;99.90
43858;DHT22;29507;51.284;5.758;2023-08-17T07:14:58;19.00;99.90
43858;DHT22;29507;51.284;5.758;2023-08-17T07:17:23;18.90;99.90
43858;DHT22;29507;51.284;5.758;2023-08-17T07:19:49;19.10;99.90
43858;DHT22;29507;51.284;5.758;2023-08-17T07:22:15;19.20;99.90
43858;DHT22;29507;51.284;5.758;2023-08-17T07:24:42;19.30;99.90
43858;DHT22;29507;51.284;5.758;2023-08-17T07:27:07;19.40;99.90
43858;DHT22;29507;51.284;5.758;2023-08-17T07:29:33;19.40;99.90
43858;DHT22;29507;51.284;5.758;2023-08-17T07:31:59;19.30;99.90
43858;DHT22;29507;51.284;5.758;2023-08-17T07:34:28;19.30;99.90
43858;DHT22;29507;51.284;5.758;2023-08-17T07:36:54;19.20;99.90
43858;DHT22;29507;51.284;5.758;2023-08-17T07:39:19;19.20;99.90
43858;DHT22;29507;51.284;5.758;2023-08-17T07:41:45;19.10;99.90
43858;DHT22;29507;51.284;5.758;2023-08-17T07:44:11;19.10;99.90
43858;DHT22;29507;51.284;5.758;2023-08-17T07:46:37;19.00;99.90
43858;DHT22;29507;51.284;5.758;2023-08-17T07:49:03;19.00;99.90
43858;DHT22;29507;51.284;5.758;2023-08-17T07:51:28;19.00;99.90
43858;DHT22;29507;51.284;5.758;2023-08-17T07:53:56;19.00;99.90
43858;DHT22;29507;51.284;5.758;2023-08-17T07:56:21;19.00;99.90
43858;DHT22;29507;51.284;5.758;2023-08-17T07:58:47;19.00;99.90
43858;DHT22;29507;51.284;5.758;2023-08-17T08:01:12;19.10;99.90
43858;DHT22;29507;51.284;5.758;2023-08-17T08:03:38;19.20;99.90
43858;DHT22;29507;51.284;5.758;2023-08-17T08:06:04;19.10;99.90
43858;DHT22;29507;51.284;5.758;2023-08-17T08:08:29;19.20;99.90
43858;DHT22;29507;51.284;5.758;2023-08-17T08:10:55;19.20;99.90
43858;DHT22;29507;51.284;5.758;2023-08-17T08:13:20;19.20;99.90
43858;DHT22;29507;51.284;5.758;2023-08-17T08:15:46;19.10;99.90
43858;DHT22;29507;51.284;5.758;2023-08-17T08:18:12;19.10;99.90
43858;DHT22;29507;51.284;5.758;2023-08-17T08:20:38;19.10;99.90
43858;DHT22;29507;51.284;5.758;2023-08-17T08:23:03;19.10;99.90
43858;DHT22;29507;51.284;5.758;2023-08-17T08:25:29;19.20;99.90
43858;DHT22;29507;51.284;5.758;2023-08-17T08:27:55;19.30;99.90
43858;DHT22;29507;51.284;5.758;2023-08-17T08:30:20;19.40;99.90
43858;DHT22;29507;51.284;5.758;2023-08-17T08:32:46;19.40;99.90
43858;DHT22;29507;51.284;5.758;2023-08-17T08:35:12;19.30;99.90
43858;DHT22;29507;51.284;5.758;2023-08-17T08:37:37;19.20;99.90
43858;DHT22;29507;51.284;5.758;2023-08-17T08:40:03;19.20;99.90
43858;DHT22;29507;51.284;5.758;2023-08-17T08:42:29;19.20;99.90
43858;DHT22;29507;51.284;5.758;2023-08-17T08:44:55;19.20;99.90
43858;DHT22;29507;51.284;5.758;2023-08-17T08:47:21;19.20;99.90
43858;DHT22;29507;51.284;5.758;2023-08-17T08:49:59;19.20;99.90
43858;DHT22;29507;51.284;5.758;2023-08-17T08:55:23;19.20;99.90
43858;DHT22;29507;51.284;5.758;2023-08-17T08:57:52;19.30;99.90
43858;DHT22;29507;51.284;5.758;2023-08-17T09:00:18;19.40;99.90
43858;DHT22;29507;51.284;5.758;2023-08-17T09:02:44;19.40;99.90
43858;DHT22;29507;51.284;5.758;2023-08-17T09:05:11;19.40;99.90
43858;DHT22;29507;51.284;5.758;2023-08-17T09:07:37;19.30;99.90
43858;DHT22;29507;51.284;5.758;2023-08-17T09:10:04;19.30;99.90
43858;DHT22;29507;51.284;5.758;2023-08-17T09:12:30;19.40;99.90
43858;DHT22;29507;51.284;5.758;2023-08-17T09:14:56;19.50;99.90
43858;DHT22;29507;51.284;5.758;2023-08-17T09:17:26;19.60;99.90
43858;DHT22;29507;51.284;5.758;2023-08-17T09:19:52;19.70;99.90
43858;DHT22;29507;51.284;5.758;2023-08-17T09:22:25;19.70;99.90
43858;DHT22;29507;51.284;5.758;2023-08-17T09:24:51;19.70;99.90
43858;DHT22;29507;51.284;5.758;2023-08-17T09:27:17;19.70;99.90
43858;DHT22;29507;51.284;5.758;2023-08-17T09:29:43;19.80;99.90
43858;DHT22;29507;51.284;5.758;2023-08-17T09:32:11;19.90;99.90
43858;DHT22;29507;51.284;5.758;2023-08-17T09:34:37;20.00;99.90
43858;DHT22;29507;51.284;5.758;2023-08-17T09:37:03;20.00;99.90
43858;DHT22;29507;51.284;5.758;2023-08-17T09:39:30;20.10;99.90
43858;DHT22;29507;51.284;5.758;2023-08-17T09:41:56;20.00;99.90
43858;DHT22;29507;51.284;5.758;2023-08-17T09:44:22;20.00;99.90
43858;DHT22;29507;51.284;5.758;2023-08-17T09:46:48;20.00;99.90
43858;DHT22;29507;51.284;5.758;2023-08-17T09:49:13;20.00;99.90
43858;DHT22;29507;51.284;5.758;2023-08-17T09:51:43;20.00;99.90
43858;DHT22;29507;51.284;5.758;2023-08-17T09:54:21;20.10;99.90
43858;DHT22;29507;51.284;5.758;2023-08-17T09:56:52;20.00;99.90
43858;DHT22;29507;51.284;5.758;2023-08-17T09:59:18;19.90;99.90
43858;DHT22;29507;51.284;5.758;2023-08-17T10:01:47;20.00;99.90
43858;DHT22;29507;51.284;5.758;2023-08-17T10:04:18;20.00;99.90
43858;DHT22;29507;51.284;5.758;2023-08-17T10:06:51;20.00;99.90
43858;DHT22;29507;51.284;5.758;2023-08-17T10:09:24;20.00;99.90
43858;DHT22;29507;51.284;5.758;2023-08-17T10:11:52;20.00;99.90
43858;DHT22;29507;51.284;5.758;2023-08-17T10:14:22;20.10;99.90
43858;DHT22;29507;51.284;5.758;2023-08-17T10:17:07;20.10;99.90
43858;DHT22;29507;51.284;5.758;2023-08-17T10:19:57;20.20;99.90
43858;DHT22;29507;51.284;5.758;2023-08-17T10:22:39;20.30;99.90
43858;DHT22;29507;51.284;5.758;2023-08-17T10:25:09;20.40;99.90
43858;DHT22;29507;51.284;5.758;2023-08-17T10:27:37;20.40;99.90
43858;DHT22;29507;51.284;5.758;2023-08-17T10:30:03;20.50;99.90
43858;DHT22;29507;51.284;5.758;2023-08-17T10:32:29;20.80;99.90
43858;DHT22;29507;51.284;5.758;2023-08-17T10:34:57;20.80;99.90
43858;DHT22;29507;51.284;5.758;2023-08-17T10:37:23;20.80;99.90
43858;DHT22;29507;51.284;5.758;2023-08-17T10:39:51;20.80;99.90
43858;DHT22;29507;51.284;5.758;2023-08-17T10:42:36;20.80;99.90
43858;DHT22;29507;51.284;5.758;2023-08-17T10:45:25;20.70;99.90
43858;DHT22;29507;51.284;5.758;2023-08-17T10:50:31;20.70;99.90
43858;DHT22;29507;51.284;5.758;2023-08-17T10:52:58;20.60;99.90
43858;DHT22;29507;51.284;5.758;2023-08-17T10:55:38;20.70;99.90
43858;DHT22;29507;51.284;5.758;2023-08-17T10:58:07;21.00;99.90
43858;DHT22;29507;51.284;5.758;2023-08-17T11:00:38;21.20;99.90
43858;DHT22;29507;51.284;5.758;2023-08-17T11:03:05;21.60;99.90
43858;DHT22;29507;51.284;5.758;2023-08-17T11:05:41;21.90;99.90
43858;DHT22;29507;51.284;5.758;2023-08-17T11:08:09;22.30;99.90
43858;DHT22;29507;51.284;5.758;2023-08-17T11:10:35;22.30;99.90
43858;DHT22;29507;51.284;5.758;2023-08-17T11:13:01;22.30;99.90
43858;DHT22;29507;51.284;5.758;2023-08-17T11:15:40;22.00;99.90
43858;DHT22;29507;51.284;5.758;2023-08-17T11:18:11;21.80;99.90
43858;DHT22;29507;51.284;5.758;2023-08-17T11:20:39;21.70;99.90
43858;DHT22;29507;51.284;5.758;2023-08-17T11:23:06;21.80;99.90
43858;DHT22;29507;51.284;5.758;2023-08-17T11:25:32;22.00;99.90
43858;DHT22;29507;51.284;5.758;2023-08-17T11:28:00;22.00;99.90
43858;DHT22;29507;51.284;5.758;2023-08-17T11:30:27;22.00;99.90
43858;DHT22;29507;51.284;5.758;2023-08-17T11:32:54;21.90;99.90
43858;DHT22;29507;51.284;5.758;2023-08-17T11:35:21;21.70;99.90
43858;DHT22;29507;51.284;5.758;2023-08-17T11:37:48;21.60;99.90
43858;DHT22;29507;51.284;5.758;2023-08-17T11:40:14;21.60;99.90
43858;DHT22;29507;51.284;5.758;2023-08-17T11:42:41;21.60;99.90
43858;DHT22;29507;51.284;5.758;2023-08-17T11:45:07;21.50;99.90
43858;DHT22;29507;51.284;5.758;2023-08-17T11:47:35;21.60;99.90
43858;DHT22;29507;51.284;5.758;2023-08-17T11:50:02;21.60;99.90
43858;DHT22;29507;51.284;5.758;2023-08-17T11:52:29;21.50;99.90
43858;DHT22;29507;51.284;5.758;2023-08-17T11:54:57;21.30;99.90
43858;DHT22;29507;51.284;5.758;2023-08-17T11:57:23;21.30;99.90
43858;DHT22;29507;51.284;5.758;2023-08-17T11:59:48;21.30;99.90
43858;DHT22;29507;51.284;5.758;2023-08-17T12:02:14;21.30;99.90
43858;DHT22;29507;51.284;5.758;2023-08-17T12:04:40;21.30;99.90
43858;DHT22;29507;51.284;5.758;2023-08-17T12:07:05;21.40;99.90
43858;DHT22;29507;51.284;5.758;2023-08-17T12:09:34;21.50;99.90
43858;DHT22;29507;51.284;5.758;2023-08-17T12:12:01;21.50;99.90
43858;DHT22;29507;51.284;5.758;2023-08-17T12:14:27;21.60;99.90
43858;DHT22;29507;51.284;5.758;2023-08-17T12:16:56;21.60;99.90
43858;DHT22;29507;51.284;5.758;2023-08-17T12:19:24;21.80;99.90
43858;DHT22;29507;51.284;5.758;2023-08-17T12:21:50;21.90;99.90
43858;DHT22;29507;51.284;5.758;2023-08-17T12:24:16;21.90;99.90
43858;DHT22;29507;51.284;5.758;2023-08-17T12:26:45;21.90;99.90
43858;DHT22;29507;51.284;5.758;2023-08-17T12:29:12;21.90;99.90
43858;DHT22;29507;51.284;5.758;2023-08-17T12:31:38;21.90;99.90
43858;DHT22;29507;51.284;5.758;2023-08-17T12:34:04;22.00;99.90
43858;DHT22;29507;51.284;5.758;2023-08-17T12:36:31;22.00;99.90
43858;DHT22;29507;51.284;5.758;2023-08-17T12:38:58;22.00;99.90
43858;DHT22;29507;51.284;5.758;2023-08-17T12:41:24;22.00;99.90
43858;DHT22;29507;51.284;5.758;2023-08-17T12:43:50;21.90;99.90
43858;DHT22;29507;51.284;5.758;2023-08-17T12:46:15;21.90;99.90
43858;DHT22;29507;51.284;5.758;2023-08-17T12:48:41;21.80;99.90
43858;DHT22;29507;51.284;5.758;2023-08-17T12:51:07;21.70;99.90
43858;DHT22;29507;51.284;5.758;2023-08-17T12:53:33;21.80;99.90
43858;DHT22;29507;51.284;5.758;2023-08-17T12:55:58;21.90;99.90
43858;DHT22;29507;51.284;5.758;2023-08-17T12:58:24;22.10;99.90
43858;DHT22;29507;51.284;5.758;2023-08-17T13:00:50;22.20;99.90
43858;DHT22;29507;51.284;5.758;2023-08-17T13:03:17;22.20;99.90
43858;DHT22;29507;51.284;5.758;2023-08-17T13:05:43;22.30;99.90
43858;DHT22;29507;51.284;5.758;2023-08-17T13:08:08;22.30;99.90
43858;DHT22;29507;51.284;5.758;2023-08-17T13:10:34;22.20;99.90
43858;DHT22;29507;51.284;5.758;2023-08-17T13:13:00;22.10;99.90
43858;DHT22;29507;51.284;5.758;2023-08-17T13:15:26;21.80;99.90
43858;DHT22;29507;51.284;5.758;2023-08-17T13:17:52;21.80;99.90
43858;DHT22;29507;51.284;5.758;2023-08-17T13:20:17;21.90;99.90
43858;DHT22;29507;51.284;5.758;2023-08-17T13:22:43;22.00;99.90
43858;DHT22;29507;51.284;5.758;2023-08-17T13:25:09;22.10;99.90
43858;DHT22;29507;51.284;5.758;2023-08-17T13:27:35;21.90;99.90
43858;DHT22;29507;51.284;5.758;2023-08-17T13:30:00;21.80;99.90
43858;DHT22;29507;51.284;5.758;2023-08-17T13:32:27;21.80;99.90
43858;DHT22;29507;51.284;5.758;2023-08-17T13:34:53;21.80;99.90
43858;DHT22;29507;51.284;5.758;2023-08-17T13:37:19;21.80;99.90
43858;DHT22;29507;51.284;5.758;2023-08-17T13:39:46;22.00;99.90
43858;DHT22;29507;51.284;5.758;2023-08-17T13:42:11;22.10;99.90
43858;DHT22;29507;51.284;5.758;2023-08-17T13:44:37;22.10;99.90
43858;DHT22;29507;51.284;5.758;2023-08-17T13:47:03;22.20;99.90
43858;DHT22;29507;51.284;5.758;2023-08-17T13:49:29;22.30;99.90
43858;DHT22;29507;51.284;5.758;2023-08-17T13:51:54;22.30;99.90
43858;DHT22;29507;51.284;5.758;2023-08-17T13:54:24;22.30;99.90
43858;DHT22;29507;51.284;5.758;2023-08-17T13:56:50;22.30;99.90
43858;DHT22;29507;51.284;5.758;2023-08-17T13:59:16;22.30;99.90
43858;DHT22;29507;51.284;5.758;2023-08-17T14:01:42;22.10;99.90
43858;DHT22;29507;51.284;5.758;2023-08-17T14:04:07;22.10;99.90
43858;DHT22;29507;51.284;5.758;2023-08-17T14:06:40;22.00;99.90
43858;DHT22;29507;51.284;5.758;2023-08-17T14:09:06;22.00;99.90
43858;DHT22;29507;51.284;5.758;2023-08-17T14:11:32;22.00;99.90
43858;DHT22;29507;51.284;5.758;2023-08-17T14:13:58;22.00;99.90
43858;DHT22;29507;51.284;5.758;2023-08-17T14:16:23;22.10;99.90
43858;DHT22;29507;51.284;5.758;2023-08-17T14:18:49;22.10;99.90
43858;DHT22;29507;51.284;5.758;2023-08-17T14:21:15;22.10;99.90
43858;DHT22;29507;51.284;5.758;2023-08-17T14:23:41;22.30;99.90
43858;DHT22;29507;51.284;5.758;2023-08-17T14:26:07;22.30;99.90
43858;DHT22;29507;51.284;5.758;2023-08-17T14:28:33;22.30;99.90
43858;DHT22;29507;51.284;5.758;2023-08-17T14:30:58;22.30;99.90
43858;DHT22;29507;51.284;5.758;2023-08-17T14:33:24;22.30;99.90
43858;DHT22;29507;51.284;5.758;2023-08-17T14:35:50;22.30;99.90
43858;DHT22;29507;51.284;5.758;2023-08-17T14:38:16;22.30;99.90
43858;DHT22;29507;51.284;5.758;2023-08-17T14:40:46;22.20;99.90
43858;DHT22;29507;51.284;5.758;2023-08-17T14:43:12;22.10;99.90
43858;DHT22;29507;51.284;5.758;2023-08-17T14:45:42;22.00;99.90
43858;DHT22;29507;51.284;5.758;2023-08-17T14:48:08;21.90;99.90
43858;DHT22;29507;51.284;5.758;2023-08-17T14:50:35;21.80;99.90
43858;DHT22;29507;51.284;5.758;2023-08-17T14:53:04;21.70;99.90
43858;DHT22;29507;51.284;5.758;2023-08-17T14:55:33;21.60;99.90
43858;DHT22;29507;51.284;5.758;2023-08-17T14:57:59;21.70;99.90
43858;DHT22;29507;51.284;5.758;2023-08-17T15:00:25;21.80;99.90
43858;DHT22;29507;51.284;5.758;2023-08-17T15:02:54;21.80;99.90
43858;DHT22;29507;51.284;5.758;2023-08-17T15:05:20;21.90;99.90
43858;DHT22;29507;51.284;5.758;2023-08-17T15:07:47;21.90;99.90
43858;DHT22;29507;51.284;5.758;2023-08-17T15:10:12;21.90;99.90
43858;DHT22;29507;51.284;5.758;2023-08-17T15:12:38;21.90;99.90
43858;DHT22;29507;51.284;5.758;2023-08-17T15:15:04;21.90;99.90
43858;DHT22;29507;51.284;5.758;2023-08-17T15:17:30;21.90;99.90
43858;DHT22;29507;51.284;5.758;2023-08-17T15:19:55;21.80;99.90
43858;DHT22;29507;51.284;5.758;2023-08-17T15:22:21;21.80;99.90
43858;DHT22;29507;51.284;5.758;2023-08-17T15:24:47;21.90;99.90
43858;DHT22;29507;51.284;5.758;2023-08-17T15:27:13;22.00;99.90
43858;DHT22;29507;51.284;5.758;2023-08-17T15:29:39;22.10;99.90
43858;DHT22;29507;51.284;5.758;2023-08-17T15:32:08;22.00;99.90
43858;DHT22;29507;51.284;5.758;2023-08-17T15:34:34;21.80;99.90